createdAt,value
2016-04-23T00:00:56.935Z,48.52
2016-04-23T00:01:57.016Z,48.59
2016-04-23T00:02:56.925Z,48.33
2016-04-23T00:03:56.724Z,48.52
2016-04-23T00:04:56.946Z,48.43
2016-04-23T00:05:57.121Z,48.71
2016-04-23T00:06:56.921Z,48.52
2016-04-23T00:07:56.923Z,48.52
2016-04-23T00:08:57.113Z,48.43
2016-04-23T00:09:57.100Z,48.43
2016-04-23T00:10:57.119Z,48.23
2016-04-23T00:11:57.106Z,48.33
2016-04-23T00:12:56.687Z,48.52
2016-04-23T00:13:57.095Z,48.52
2016-04-23T00:14:56.879Z,48.23
2016-04-23T00:15:56.882Z,48.33
2016-04-23T00:16:56.540Z,48.3
2016-04-23T00:17:56.872Z,48.43
2016-04-23T00:18:56.859Z,48.33
2016-04-23T00:19:56.674Z,48.13
2016-04-23T00:20:57.067Z,48.33
2016-04-23T00:21:56.851Z,48.52
2016-04-23T00:22:57.057Z,48.33
2016-04-23T00:23:56.856Z,48.43
2016-04-23T00:24:56.844Z,48.23
2016-04-23T00:25:57.034Z,48.21
2016-04-23T00:26:56.833Z,48.23
2016-04-23T00:27:56.836Z,48.11
2016-04-23T00:28:57.027Z,48.13
2016-04-23T00:29:56.825Z,48.43
2016-04-23T00:30:56.813Z,48.33
2016-04-23T00:31:56.613Z,48.52
2016-04-23T00:32:56.819Z,48.3
2016-04-23T00:33:57.008Z,48.04
2016-04-23T00:34:56.793Z,48.33
2016-04-23T00:35:56.796Z,48.11
2016-04-23T00:36:56.594Z,48.13
2016-04-23T00:37:56.582Z,48.11
2016-04-23T00:38:56.788Z,48.3
2016-04-23T00:39:56.774Z,48.43
2016-04-23T00:40:56.777Z,48.3
2016-04-23T00:41:56.968Z,47.92
2016-04-23T00:42:56.767Z,47.92
2016-04-23T00:43:56.567Z,48.4
2016-04-23T00:44:56.757Z,48.3
2016-04-23T00:45:56.948Z,48.11
2016-04-23T00:46:56.746Z,48.49
2016-04-23T00:47:56.937Z,48.3
2016-04-23T00:48:56.737Z,48.3
2016-04-23T00:49:56.520Z,47.92
2016-04-23T00:50:56.945Z,48.02
2016-04-23T00:51:56.931Z,48.02
2016-04-23T00:52:56.717Z,47.92
2016-04-23T00:53:56.719Z,48.02
2016-04-23T00:54:56.503Z,48.02
2016-04-23T00:55:56.708Z,48.02
2016-04-23T00:56:56.508Z,47.82
2016-04-23T00:57:56.495Z,48.4
2016-04-23T00:58:56.716Z,48.3
2016-04-23T00:59:56.688Z,48.02
2016-04-23T01:00:56.894Z,48.11
2016-04-23T01:01:56.881Z,48.02
2016-04-23T01:02:56.477Z,48.4
2016-04-23T01:03:56.666Z,48.4
2016-04-23T01:04:56.669Z,47.92
2016-04-23T01:05:56.658Z,48.3
2016-04-23T01:06:56.675Z,48.11
2016-04-23T01:07:56.662Z,48.11
2016-04-23T01:08:56.853Z,48.11
2016-04-23T01:09:56.652Z,48.02
2016-04-23T01:10:56.843Z,48.3
2016-04-23T01:11:56.642Z,48.02
2016-04-23T01:12:56.646Z,48.02
2016-04-23T01:13:56.819Z,48.02
2016-04-23T01:14:56.618Z,48.02
2016-04-23T01:15:56.824Z,48.11
2016-04-23T01:16:56.608Z,48.02
2016-04-23T01:17:56.830Z,48.11
2016-04-23T01:18:56.614Z,47.92
2016-04-23T01:19:56.601Z,47.92
2016-04-23T01:20:56.432Z,47.82
2016-04-23T01:21:56.795Z,48.11
2016-04-23T01:22:56.422Z,48.21
2016-04-23T01:23:56.580Z,47.92
2016-04-23T01:24:56.568Z,48.02
2016-04-23T01:25:56.773Z,48.21
2016-04-23T01:26:56.573Z,48.21
2016-04-23T01:27:56.560Z,47.92
2016-04-23T01:28:56.188Z,48.3
2016-04-23T01:29:56.566Z,48.21
2016-04-23T01:30:56.552Z,47.92
2016-04-23T01:31:56.539Z,48.4
2016-04-23T01:32:56.542Z,48.4
2016-04-23T01:33:56.530Z,48.3
2016-04-23T01:34:56.735Z,48.49
2016-04-23T01:35:56.519Z,48.3
2016-04-23T01:36:56.522Z,48.21
2016-04-23T01:37:56.727Z,48.11
2016-04-23T01:38:56.715Z,48.49
2016-04-23T01:39:56.514Z,47.82
2016-04-23T01:40:56.704Z,48.11
2016-04-23T01:41:56.723Z,48.3
2016-04-23T01:42:56.491Z,48.4
2016-04-23T01:43:56.712Z,48.3
2016-04-23T01:44:56.481Z,48.11
2016-04-23T01:45:56.687Z,48.49
2016-04-23T01:46:56.674Z,48.11
2016-04-23T01:47:56.676Z,48.21
2016-04-23T01:48:56.476Z,48.21
2016-04-23T01:49:56.666Z,48.02
2016-04-23T01:50:56.262Z,47.92
2016-04-23T01:51:56.453Z,48.21
2016-04-23T01:52:56.658Z,48.3
2016-04-23T01:53:56.240Z,48.3
2016-04-23T01:54:56.648Z,48.11
2016-04-23T01:55:56.635Z,47.92
2016-04-23T01:56:56.654Z,48.02
2016-04-23T01:57:56.422Z,48.4
2016-04-23T01:58:56.425Z,48.21
2016-04-23T01:59:56.208Z,48.21
2016-04-23T02:00:56.618Z,48.11
2016-04-23T02:01:56.620Z,48.21
2016-04-23T02:02:56.404Z,48.3
2016-04-23T02:03:56.407Z,48.49
2016-04-23T02:04:56.393Z,48.21
2016-04-23T02:05:56.397Z,48.4
2016-04-23T02:06:56.180Z,48.4
2016-04-23T02:07:56.386Z,48.49
2016-04-23T02:08:56.577Z,48.21
2016-04-23T02:09:56.580Z,48.49
2016-04-23T02:10:56.363Z,48.21
2016-04-23T02:11:56.568Z,48.21
2016-04-23T02:12:56.166Z,48.11
2016-04-23T02:13:56.355Z,48.11
2016-04-23T02:14:56.358Z,48.3
2016-04-23T02:15:56.345Z,48.3
2016-04-23T02:16:56.348Z,48.3
2016-04-23T02:17:56.335Z,48.3
2016-04-23T02:18:56.337Z,48.49
2016-04-23T02:19:56.340Z,48.21
2016-04-23T02:20:56.531Z,48.21
2016-04-23T02:21:56.143Z,48.4
2016-04-23T02:22:56.108Z,48.4
2016-04-23T02:23:56.517Z,48.11
2016-04-23T02:24:56.505Z,48.11
2016-04-23T02:25:56.303Z,48.3
2016-04-23T02:26:56.291Z,48.4
2016-04-23T02:27:56.293Z,48.49
2016-04-23T02:28:56.078Z,48.4
2016-04-23T02:29:56.283Z,48.21
2016-04-23T02:30:56.489Z,48.49
2016-04-23T02:31:56.070Z,48.49
2016-04-23T02:32:56.260Z,48.3
2016-04-23T02:33:56.466Z,48.4
2016-04-23T02:34:56.249Z,48.11
2016-04-23T02:35:56.065Z,48.3
2016-04-23T02:36:56.271Z,48.4
2016-04-23T02:37:56.258Z,48.4
2016-04-23T02:38:56.245Z,48.21
2016-04-23T02:39:56.435Z,48.3
2016-04-23T02:40:56.032Z,48.3
2016-04-23T02:41:56.221Z,48.4
2016-04-23T02:42:56.428Z,48.21
2016-04-23T02:43:56.009Z,48.02
2016-04-23T02:44:56.418Z,48.21
2016-04-23T02:45:56.420Z,48.21
2016-04-23T02:46:56.407Z,48.3
2016-04-23T02:47:56.051Z,48.02
2016-04-23T02:48:56.397Z,48.3
2016-04-23T02:49:56.181Z,48.11
2016-04-23T02:50:56.183Z,48.3
2016-04-23T02:51:56.171Z,48.4
2016-04-23T02:52:55.970Z,48.3
2016-04-23T02:53:55.972Z,48.49
2016-04-23T02:54:55.976Z,48.49
2016-04-23T02:55:56.150Z,48.49
2016-04-23T02:56:56.153Z,48.4
2016-04-23T02:57:56.155Z,48.3
2016-04-23T02:58:56.347Z,48.4
2016-04-23T02:59:56.130Z,48.4
2016-04-23T03:00:55.976Z,48.4
2016-04-23T03:01:56.135Z,48.02
2016-04-23T03:02:56.325Z,48.4
2016-04-23T03:03:56.141Z,48.59
2016-04-23T03:04:56.315Z,48.3
2016-04-23T03:05:55.911Z,48.4
2016-04-23T03:06:56.118Z,48.3
2016-04-23T03:07:56.104Z,48.49
2016-04-23T03:08:55.888Z,48.3
2016-04-23T03:09:56.297Z,48.4
2016-04-23T03:10:55.879Z,48.4
2016-04-23T03:11:56.084Z,48.4
2016-04-23T03:12:55.867Z,48.49
2016-04-23T03:13:56.277Z,48.49
2016-04-23T03:14:56.076Z,48.21
2016-04-23T03:15:55.859Z,48.49
2016-04-23T03:16:56.270Z,48.4
2016-04-23T03:17:56.256Z,48.3
2016-04-23T03:18:56.040Z,48.21
2016-04-23T03:19:56.059Z,48.3
2016-04-23T03:20:56.046Z,48.3
2016-04-23T03:21:55.829Z,48.49
2016-04-23T03:22:55.817Z,48.21
2016-04-23T03:23:56.225Z,48.3
2016-04-23T03:24:56.025Z,48.3
2016-04-23T03:25:56.011Z,48.4
2016-04-23T03:26:56.217Z,48.4
2016-04-23T03:27:56.003Z,48.49
2016-04-23T03:28:56.208Z,48.47
2016-04-23T03:29:55.789Z,48.4
2016-04-23T03:30:55.994Z,48.49
2016-04-23T03:31:56.200Z,48.4
2016-04-23T03:32:55.984Z,48.3
2016-04-23T03:33:55.768Z,48.4
2016-04-23T03:34:55.974Z,48.4
2016-04-23T03:35:55.774Z,48.4
2016-04-23T03:36:55.777Z,48.4
2016-04-23T03:37:55.966Z,48.57
2016-04-23T03:38:55.954Z,48.69
2016-04-23T03:39:56.160Z,48.49
2016-04-23T03:40:56.146Z,48.49
2016-04-23T03:41:56.148Z,48.49
2016-04-23T03:42:55.745Z,48.21
2016-04-23T03:43:55.733Z,48.59
2016-04-23T03:44:55.735Z,48.21
2016-04-23T03:45:55.723Z,48.49
2016-04-23T03:46:55.709Z,48.66
2016-04-23T03:47:55.712Z,48.38
2016-04-23T03:48:55.902Z,48.49
2016-04-23T03:49:55.904Z,48.69
2016-04-23T03:50:56.095Z,48.4
2016-04-23T03:51:56.098Z,48.69
2016-04-23T03:52:56.101Z,48.57
2016-04-23T03:53:55.884Z,48.3
2016-04-23T03:54:55.872Z,48.47
2016-04-23T03:55:55.877Z,48.38
2016-04-23T03:56:55.865Z,48.57
2016-04-23T03:57:56.071Z,48.4
2016-04-23T03:58:55.854Z,48.59
2016-04-23T03:59:55.858Z,48.47
2016-04-23T04:00:55.844Z,48.59
2016-04-23T04:01:56.051Z,48.69
2016-04-23T04:02:56.069Z,48.66
2016-04-23T04:03:56.040Z,48.59
2016-04-23T04:04:55.839Z,48.69
2016-04-23T04:05:56.029Z,48.78
2016-04-23T04:06:55.814Z,48.4
2016-04-23T04:07:55.614Z,48.59
2016-04-23T04:08:55.820Z,48.69
2016-04-23T04:09:55.806Z,48.49
2016-04-23T04:10:56.011Z,48.59
2016-04-23T04:11:55.796Z,48.49
2016-04-23T04:12:55.783Z,48.75
2016-04-23T04:13:55.989Z,48.66
2016-04-23T04:14:55.992Z,48.59
2016-04-23T04:15:55.572Z,48.38
2016-04-23T04:16:55.794Z,48.59
2016-04-23T04:17:55.984Z,48.47
2016-04-23T04:18:55.971Z,48.3
2016-04-23T04:19:55.958Z,48.69
2016-04-23T04:20:55.960Z,48.66
2016-04-23T04:21:55.947Z,48.75
2016-04-23T04:22:55.747Z,48.47
2016-04-23T04:23:55.532Z,48.66
2016-04-23T04:24:55.738Z,48.57
2016-04-23T04:25:55.537Z,48.69
2016-04-23T04:26:55.524Z,48.47
2016-04-23T04:27:55.729Z,48.66
2016-04-23T04:28:55.935Z,48.57
2016-04-23T04:29:55.704Z,48.75
2016-04-23T04:30:55.722Z,48.75
2016-04-23T04:31:55.694Z,48.75
2016-04-23T04:32:55.727Z,48.57
2016-04-23T04:33:55.715Z,48.66
2016-04-23T04:34:55.701Z,48.66
2016-04-23T04:35:55.485Z,48.75
2016-04-23T04:36:55.878Z,48.57
2016-04-23T04:37:55.865Z,48.66
2016-04-23T04:38:55.884Z,48.57
2016-04-23T04:39:55.871Z,48.95
2016-04-23T04:40:55.656Z,48.57
2016-04-23T04:41:55.658Z,48.57
2016-04-23T04:42:55.848Z,48.85
2016-04-23T04:43:55.444Z,48.75
2016-04-23T04:44:55.634Z,48.85
2016-04-23T04:45:55.434Z,48.85
2016-04-23T04:46:55.422Z,48.75
2016-04-23T04:47:55.831Z,48.57
2016-04-23T04:48:55.411Z,48.75
2016-04-23T04:49:55.617Z,48.85
2016-04-23T04:50:55.807Z,48.75
2016-04-23T04:51:55.622Z,48.85
2016-04-23T04:52:55.390Z,48.75
2016-04-23T04:53:55.377Z,48.66
2016-04-23T04:54:55.802Z,48.57
2016-04-23T04:55:55.789Z,48.66
2016-04-23T04:56:55.589Z,48.47
2016-04-23T04:57:55.576Z,48.47
2016-04-23T04:58:55.766Z,48.66
2016-04-23T04:59:55.565Z,48.57
2016-04-23T05:00:55.756Z,48.57
2016-04-23T05:01:55.555Z,48.66
2016-04-23T05:02:55.418Z,49.05
2016-04-23T05:03:55.749Z,48.85
2016-04-23T05:04:55.329Z,48.85
2016-04-23T05:05:55.332Z,48.85
2016-04-23T05:06:55.725Z,48.85
2016-04-23T05:07:55.322Z,48.85
2016-04-23T05:08:55.714Z,48.75
2016-04-23T05:09:55.514Z,48.85
2016-04-23T05:10:55.517Z,48.95
2016-04-23T05:11:55.707Z,48.95
2016-04-23T05:12:55.506Z,49.05
2016-04-23T05:13:55.509Z,48.85
2016-04-23T05:14:55.497Z,48.95
2016-04-23T05:15:55.484Z,48.95
2016-04-23T05:16:55.689Z,48.95
2016-04-23T05:17:55.473Z,48.95
2016-04-23T05:18:55.680Z,48.85
2016-04-23T05:19:55.464Z,48.85
2016-04-23T05:20:55.669Z,48.85
2016-04-23T05:21:55.453Z,48.95
2016-04-23T05:22:55.252Z,49.05
2016-04-23T05:23:55.646Z,48.85
2016-04-23T05:24:55.445Z,48.95
2016-04-23T05:25:55.448Z,48.85
2016-04-23T05:26:55.419Z,48.85
2016-04-23T05:27:55.422Z,49.05
2016-04-23T05:28:55.425Z,48.75
2016-04-23T05:29:55.427Z,49.05
2016-04-23T05:30:55.415Z,48.75
2016-04-23T05:31:55.620Z,48.95
2016-04-23T05:32:55.623Z,49.05
2016-04-23T05:33:55.391Z,49.05
2016-04-23T05:34:55.394Z,48.85
2016-04-23T05:35:55.193Z,48.95
2016-04-23T05:36:55.384Z,49.05
2016-04-23T05:37:55.590Z,48.85
2016-04-23T05:38:55.592Z,49.05
2016-04-23T05:39:55.376Z,48.85
2016-04-23T05:40:55.364Z,48.95
2016-04-23T05:41:55.570Z,49.05
2016-04-23T05:42:55.353Z,48.85
2016-04-23T05:43:55.559Z,49.05
2016-04-23T05:44:55.343Z,48.95
2016-04-23T05:45:55.548Z,48.95
2016-04-23T05:46:55.130Z,48.95
2016-04-23T05:47:55.132Z,48.95
2016-04-23T05:48:55.323Z,48.95
2016-04-23T05:49:55.325Z,48.95
2016-04-23T05:50:55.531Z,48.85
2016-04-23T05:51:55.519Z,48.95
2016-04-23T05:52:55.317Z,48.85
2016-04-23T05:53:55.508Z,48.95
2016-04-23T05:54:55.307Z,48.95
2016-04-23T05:55:55.497Z,48.85
2016-04-23T05:56:55.500Z,48.75
2016-04-23T05:57:55.284Z,48.75
2016-04-23T05:58:55.271Z,48.85
2016-04-23T05:59:55.274Z,48.66
2016-04-23T06:00:55.261Z,48.85
2016-04-23T06:01:55.263Z,48.75
2016-04-23T06:02:55.266Z,48.85
2016-04-23T06:03:55.456Z,48.85
2016-04-23T06:04:55.038Z,49.05
2016-04-23T06:05:55.446Z,49.05
2016-04-23T06:06:55.027Z,48.95
2016-04-23T06:07:55.030Z,48.95
2016-04-23T06:08:55.439Z,48.85
2016-04-23T06:09:55.020Z,48.85
2016-04-23T06:10:55.428Z,48.85
2016-04-23T06:11:55.212Z,48.95
2016-04-23T06:12:54.996Z,49.05
2016-04-23T06:13:55.405Z,48.85
2016-04-23T06:14:55.408Z,48.85
2016-04-23T06:15:55.192Z,48.95
2016-04-23T06:16:55.398Z,48.85
2016-04-23T06:17:54.978Z,48.85
2016-04-23T06:18:55.372Z,48.95
2016-04-23T06:19:54.968Z,48.85
2016-04-23T06:20:55.159Z,48.95
2016-04-23T06:21:55.178Z,49.05
2016-04-23T06:22:55.367Z,48.95
2016-04-23T06:23:55.151Z,49.05
2016-04-23T06:24:55.153Z,48.95
2016-04-23T06:25:55.344Z,48.75
2016-04-23T06:26:55.346Z,48.75
2016-04-23T06:27:55.130Z,48.85
2016-04-23T06:28:55.133Z,48.85
2016-04-23T06:29:55.339Z,48.85
2016-04-23T06:30:55.107Z,48.85
2016-04-23T06:31:55.313Z,48.85
2016-04-23T06:32:55.316Z,48.75
2016-04-23T06:33:55.302Z,48.75
2016-04-23T06:34:55.102Z,48.75
2016-04-23T06:35:55.292Z,49.05
2016-04-23T06:36:55.093Z,48.85
2016-04-23T06:37:54.877Z,48.75
2016-04-23T06:38:55.285Z,48.75
2016-04-23T06:39:55.069Z,48.75
2016-04-23T06:40:54.868Z,49.05
2016-04-23T06:41:55.059Z,48.75
2016-04-23T06:42:55.264Z,48.95
2016-04-23T06:43:55.048Z,48.85
2016-04-23T06:44:55.254Z,49.05
2016-04-23T06:45:55.242Z,48.75
2016-04-23T06:46:54.837Z,48.85
2016-04-23T06:47:55.028Z,48.95
2016-04-23T06:48:54.828Z,48.85
2016-04-23T06:49:55.017Z,48.95
2016-04-23T06:50:55.020Z,49.05
2016-04-23T06:51:54.804Z,48.95
2016-04-23T06:52:55.011Z,48.75
2016-04-23T06:53:55.014Z,48.85
2016-04-23T06:54:55.203Z,48.85
2016-04-23T06:55:54.784Z,48.85
2016-04-23T06:56:54.786Z,48.85
2016-04-23T06:57:54.992Z,48.75
2016-04-23T06:58:54.980Z,48.85
2016-04-23T06:59:54.982Z,48.85
2016-04-23T07:00:55.172Z,48.75
2016-04-23T07:01:55.175Z,48.95
2016-04-23T07:02:54.975Z,48.95
2016-04-23T07:03:54.962Z,48.85
2016-04-23T07:04:54.949Z,48.95
2016-04-23T07:05:55.154Z,48.75
2016-04-23T07:06:55.157Z,48.85
2016-04-23T07:07:55.143Z,48.75
2016-04-23T07:08:54.929Z,48.57
2016-04-23T07:09:54.932Z,48.85
2016-04-23T07:10:54.918Z,48.85
2016-04-23T07:11:55.124Z,48.75
2016-04-23T07:12:55.126Z,48.57
2016-04-23T07:13:54.910Z,48.57
2016-04-23T07:14:55.101Z,48.47
2016-04-23T07:15:54.900Z,48.69
2016-04-23T07:16:54.887Z,48.66
2016-04-23T07:17:55.093Z,48.69
2016-04-23T07:18:54.878Z,48.78
2016-04-23T07:19:54.676Z,48.57
2016-04-23T07:20:54.898Z,48.69
2016-04-23T07:21:54.681Z,48.47
2016-04-23T07:22:55.059Z,48.59
2016-04-23T07:23:54.859Z,48.88
2016-04-23T07:24:54.862Z,48.66
2016-04-23T07:25:54.958Z,48.66
2016-04-23T07:26:54.852Z,48.78
2016-04-23T07:27:55.041Z,48.66
2016-04-23T07:28:54.841Z,48.69
2016-04-23T07:29:54.625Z,48.69
2016-04-23T07:30:56.222Z,48.57
2016-04-23T07:31:54.818Z,48.78
2016-04-23T07:32:55.040Z,48.49
2016-04-23T07:33:54.808Z,48.78
2016-04-23T07:34:55.013Z,48.49
2016-04-23T07:35:55.001Z,48.49
2016-04-23T07:36:54.910Z,48.49
2016-04-23T07:37:54.788Z,48.49
2016-04-23T07:38:54.790Z,48.59
2016-04-23T07:39:54.793Z,48.49
2016-04-23T07:40:56.029Z,48.78
2016-04-23T07:41:55.017Z,48.78
2016-04-23T07:42:54.846Z,48.59
2016-04-23T07:43:55.096Z,48.69
2016-04-23T07:44:54.737Z,48.49
2016-04-23T07:45:55.954Z,48.69
2016-04-23T07:46:54.776Z,48.59
2016-04-23T07:47:54.983Z,48.49
2016-04-23T07:48:55.205Z,48.49
2016-04-23T07:49:54.818Z,48.59
2016-04-23T07:50:54.868Z,48.69
2016-04-23T07:51:55.020Z,48.59
2016-04-23T07:52:55.028Z,48.59
2016-04-23T07:53:55.021Z,48.78
2016-04-23T07:54:55.045Z,48.69
2016-04-23T07:55:54.834Z,48.69
2016-04-23T07:56:55.230Z,48.78
2016-04-23T07:57:55.032Z,48.69
2016-04-23T07:58:55.022Z,48.49
2016-04-23T07:59:55.026Z,48.69
2016-04-23T08:00:55.656Z,48.69
2016-04-23T08:01:55.221Z,48.59
2016-04-23T08:02:55.224Z,48.78
2016-04-23T08:03:55.026Z,48.69
2016-04-23T08:04:55.013Z,48.49
2016-04-23T08:05:56.517Z,48.69
2016-04-23T08:06:55.207Z,48.69
2016-04-23T08:07:55.008Z,48.78
2016-04-23T08:08:54.995Z,48.59
2016-04-23T08:09:54.982Z,48.49
2016-04-23T08:10:55.001Z,48.88
2016-04-23T08:11:54.972Z,48.78
2016-04-23T08:12:55.178Z,48.78
2016-04-23T08:13:54.978Z,48.59
2016-04-23T08:14:54.965Z,48.69
2016-04-23T08:15:55.155Z,48.59
2016-04-23T08:16:54.955Z,48.78
2016-04-23T08:17:55.160Z,48.78
2016-04-23T08:18:54.742Z,48.69
2016-04-23T08:19:54.947Z,48.69
2016-04-23T08:20:54.933Z,48.78
2016-04-23T08:21:54.921Z,48.78
2016-04-23T08:22:54.736Z,48.69
2016-04-23T08:23:55.114Z,48.59
2016-04-23T08:24:54.913Z,48.69
2016-04-23T08:25:54.917Z,48.59
2016-04-23T08:26:54.904Z,48.69
2016-04-23T08:27:55.110Z,48.59
2016-04-23T08:28:54.909Z,48.69
2016-04-23T08:29:55.104Z,48.59
2016-04-23T08:30:55.137Z,48.59
2016-04-23T08:31:54.891Z,48.69
2016-04-23T08:32:54.878Z,48.78
2016-04-23T08:33:54.896Z,48.69
2016-04-23T08:34:54.679Z,48.78
2016-04-23T08:35:55.417Z,48.88
2016-04-23T08:36:55.060Z,48.78
2016-04-23T08:37:54.891Z,48.59
2016-04-23T08:38:55.051Z,48.78
2016-04-23T08:39:54.647Z,48.69
2016-04-23T08:40:54.695Z,48.69
2016-04-23T08:41:54.637Z,48.59
2016-04-23T08:42:54.826Z,48.49
2016-04-23T08:43:54.828Z,48.59
2016-04-23T08:44:54.832Z,48.59
2016-04-23T08:45:54.850Z,48.49
2016-04-23T08:46:54.805Z,48.4
2016-04-23T08:47:54.808Z,48.59
2016-04-23T08:48:54.625Z,48.49
2016-04-23T08:49:54.799Z,48.59
2016-04-23T08:50:54.597Z,48.59
2016-04-23T08:51:54.992Z,48.59
2016-04-23T08:52:54.775Z,48.49
2016-04-23T08:53:54.777Z,48.59
2016-04-23T08:54:54.780Z,48.3
2016-04-23T08:55:56.033Z,48.4
2016-04-23T08:56:54.771Z,48.4
2016-04-23T08:57:54.961Z,48.69
2016-04-23T08:58:54.760Z,48.4
2016-04-23T08:59:54.747Z,48.59
2016-04-23T09:00:54.749Z,48.4
2016-04-23T09:01:54.956Z,48.4
2016-04-23T09:02:54.943Z,48.4
2016-04-23T09:03:54.554Z,48.69
2016-04-23T09:04:54.932Z,48.69
2016-04-23T09:05:54.717Z,48.59
2016-04-23T09:06:54.923Z,48.59
2016-04-23T09:07:54.518Z,48.49
2016-04-23T09:08:54.912Z,48.49
2016-04-23T09:09:54.711Z,48.49
2016-04-23T09:10:55.870Z,48.59
2016-04-23T09:12:14.779Z,48.69
2016-04-23T09:12:54.486Z,48.59
2016-04-23T09:13:54.488Z,48.49
2016-04-23T09:14:54.897Z,48.69
2016-04-23T09:15:54.884Z,48.69
2016-04-23T09:16:54.871Z,48.69
2016-04-23T09:17:54.670Z,48.69
2016-04-23T09:18:54.689Z,48.49
2016-04-23T09:19:54.458Z,48.49
2016-04-23T09:20:54.866Z,48.69
2016-04-23T09:21:54.650Z,48.59
2016-04-23T09:22:54.652Z,48.69
2016-04-23T09:23:54.640Z,48.59
2016-04-23T09:24:54.846Z,48.49
2016-04-23T09:25:54.833Z,48.69
2016-04-23T09:26:54.633Z,48.59
2016-04-23T09:27:54.619Z,48.59
2016-04-23T09:28:54.528Z,48.3
2016-04-23T09:29:54.407Z,47.92
2016-04-23T09:30:54.596Z,48.4
2016-04-23T09:31:54.474Z,48.4
2016-04-23T09:32:55.993Z,48.4
2016-04-23T09:33:54.979Z,48.11
2016-04-23T09:34:54.326Z,47.82
2016-04-23T09:35:55.219Z,47.92
2016-04-23T09:36:54.800Z,48.02
2016-04-23T09:37:54.365Z,48.02
2016-04-23T09:38:54.570Z,47.15
2016-04-23T09:39:54.261Z,47.73
2016-04-23T09:40:54.982Z,47.73
2016-04-23T09:41:54.407Z,47.92
2016-04-23T09:42:54.753Z,48.11
2016-04-23T09:43:54.584Z,48.23
2016-04-23T09:44:54.822Z,48.49
2016-04-23T09:45:55.370Z,48.49
2016-04-23T09:46:54.342Z,48.49
2016-04-23T09:47:54.533Z,47.63
2016-04-23T09:48:54.754Z,47.82
2016-04-23T09:49:54.726Z,48.11
2016-04-23T09:50:55.150Z,47.53
2016-04-23T09:51:54.716Z,47.53
2016-04-23T09:52:54.311Z,47.73
2016-04-23T09:53:54.721Z,47.63
2016-04-23T09:54:54.505Z,47.73
2016-04-23T09:55:54.710Z,48.02
2016-04-23T09:56:54.697Z,48.4
2016-04-23T09:57:54.497Z,48.3
2016-04-23T09:58:54.546Z,48.49
2016-04-23T09:59:54.487Z,48.4
2016-04-23T10:00:54.974Z,48.4
2016-04-23T10:01:54.461Z,48.69
2016-04-23T10:02:54.464Z,48.49
2016-04-23T10:03:54.451Z,48.3
2016-04-23T10:04:54.453Z,48.69
2016-04-23T10:05:54.674Z,48.69
2016-04-23T10:07:03.677Z,48.59
2016-04-23T10:07:54.649Z,48.69
2016-04-23T10:08:54.339Z,48.59
2016-04-23T10:09:54.232Z,48.49
2016-04-23T10:10:54.626Z,48.69
2016-04-23T10:11:54.628Z,48.49
2016-04-23T10:12:54.506Z,48.69
2016-04-23T10:13:54.618Z,48.69
2016-04-23T10:14:54.605Z,48.59
2016-04-23T10:15:54.967Z,48.4
2016-04-23T10:16:54.392Z,48.69
2016-04-23T10:17:54.394Z,48.69
2016-04-23T10:18:54.600Z,48.49
2016-04-23T10:19:54.244Z,48.4
2016-04-23T10:20:54.590Z,48.69
2016-04-23T10:21:54.233Z,48.59
2016-04-23T10:22:54.173Z,48.71
2016-04-23T10:23:54.383Z,48.69
2016-04-23T10:24:54.558Z,48.71
2016-04-23T10:25:54.356Z,48.52
2016-04-23T10:26:54.359Z,48.3
2016-04-23T10:27:54.143Z,48.43
2016-04-23T10:28:54.349Z,48.43
2016-04-23T10:29:54.336Z,48.52
2016-04-23T10:30:54.338Z,48.04
2016-04-23T10:31:54.326Z,48.11
2016-04-23T10:32:54.125Z,48.43
2016-04-23T10:33:54.332Z,48.13
2016-04-23T10:34:54.552Z,48.23
2016-04-23T10:35:54.508Z,48.23
2016-04-23T10:36:54.307Z,48.13
2016-04-23T10:37:54.310Z,48.13
2016-04-23T10:38:54.298Z,48.33
2016-04-23T10:39:54.315Z,48.13
2016-04-23T10:40:54.506Z,48.43
2016-04-23T10:41:54.290Z,48.33
2016-04-23T10:42:54.293Z,48.23
2016-04-23T10:43:54.076Z,48.52
2016-04-23T10:44:54.064Z,48.23
2016-04-23T10:45:54.489Z,48.23
2016-04-23T10:46:54.460Z,48.33
2016-04-23T10:47:54.259Z,48.52
2016-04-23T10:48:54.465Z,47.94
2016-04-23T10:49:56.078Z,48.23
2016-04-23T10:50:54.237Z,48.43
2016-04-23T10:51:54.255Z,48.13
2016-04-23T10:52:54.242Z,48.33
2016-04-23T10:53:54.431Z,48.23
2016-04-23T10:54:54.435Z,48.13
2016-04-23T10:55:54.219Z,48.33
2016-04-23T10:56:54.424Z,48.43
2016-04-23T10:57:54.005Z,48.43
2016-04-23T10:58:54.430Z,48.43
2016-04-23T10:59:54.402Z,47.94
2016-04-23T11:00:54.200Z,48.04
2016-04-23T11:01:54.219Z,48.04
2016-04-23T11:02:54.190Z,47.94
2016-04-23T11:03:54.193Z,48.33
2016-04-23T11:04:54.352Z,47.94
2016-04-23T11:05:54.386Z,48.13
2016-04-23T11:06:54.389Z,47.94
2016-04-23T11:07:54.376Z,48.04
2016-04-23T11:08:54.160Z,48.04
2016-04-23T11:09:53.959Z,48.13
2016-04-23T11:10:54.165Z,48.13
2016-04-23T11:11:54.371Z,47.94
2016-04-23T11:12:54.155Z,47.94
2016-04-23T11:13:54.361Z,47.94
2016-04-23T11:14:54.347Z,48.13
2016-04-23T11:15:53.944Z,48.13
2016-04-23T11:16:57.134Z,48.23
2016-04-23T11:17:54.153Z,47.94
2016-04-23T11:18:54.124Z,48.04
2016-04-23T11:19:53.971Z,48.13
2016-04-23T11:20:54.317Z,48.13
2016-04-23T11:21:54.101Z,48.04
2016-04-23T11:22:54.306Z,47.85
2016-04-23T11:23:54.106Z,48.13
2016-04-23T11:24:53.890Z,48.13
2016-04-23T11:25:54.096Z,47.94
2016-04-23T11:26:54.099Z,47.94
2016-04-23T11:27:54.086Z,48.23
2016-04-23T11:28:54.276Z,47.75
2016-04-23T11:29:54.278Z,47.66
2016-04-23T11:30:54.063Z,47.66
2016-04-23T11:31:54.284Z,47.85
2016-04-23T11:32:53.849Z,47.75
2016-04-23T11:33:54.258Z,47.75
2016-04-23T11:34:54.152Z,47.85
2016-04-23T11:35:54.264Z,47.94
2016-04-23T11:36:54.047Z,47.75
2016-04-23T11:37:54.254Z,47.85
2016-04-23T11:38:54.053Z,47.94
2016-04-23T11:39:54.243Z,47.75
2016-04-23T11:40:54.230Z,47.75
2016-04-23T11:41:54.232Z,47.94
2016-04-23T11:42:53.813Z,47.66
2016-04-23T11:43:54.020Z,47.85
2016-04-23T11:44:53.804Z,47.75
2016-04-23T11:45:54.041Z,47.75
2016-04-23T11:46:54.012Z,47.66
2016-04-23T11:47:54.201Z,48.04
2016-04-23T11:48:53.799Z,47.94
2016-04-23T11:49:53.957Z,47.75
2016-04-23T11:50:53.992Z,48.04
2016-04-23T11:51:53.792Z,48.04
2016-04-23T11:52:53.779Z,47.94
2016-04-23T11:53:53.968Z,47.75
2016-04-23T11:54:53.970Z,47.85
2016-04-23T11:55:53.973Z,47.75
2016-04-23T11:56:54.164Z,47.94
2016-04-23T11:57:53.964Z,47.85
2016-04-23T11:58:53.950Z,47.75
2016-04-23T11:59:53.953Z,47.66
2016-04-23T12:00:54.144Z,47.85
2016-04-23T12:01:53.944Z,47.75
2016-04-23T12:02:53.930Z,47.85
2016-04-23T12:03:53.933Z,47.85
2016-04-23T12:04:53.747Z,47.94
2016-04-23T12:05:53.719Z,48.04
2016-04-23T12:06:53.722Z,48.04
2016-04-23T12:07:53.913Z,48.04
2016-04-23T12:08:53.696Z,48.04
2016-04-23T12:09:53.699Z,47.85
2016-04-23T12:10:53.905Z,47.75
2016-04-23T12:11:53.907Z,48.04
2016-04-23T12:12:53.926Z,47.75
2016-04-23T12:13:53.896Z,47.66
2016-04-23T12:14:53.884Z,47.75
2016-04-23T12:15:54.090Z,47.85
2016-04-23T12:16:54.093Z,47.75
2016-04-23T12:17:53.689Z,47.66
2016-04-23T12:18:53.879Z,47.75
2016-04-23T12:19:54.053Z,47.75
2016-04-23T12:20:53.573Z,47.75
2016-04-23T12:21:53.856Z,47.94
2016-04-23T12:22:53.875Z,47.66
2016-04-23T12:23:54.048Z,47.75
2016-04-23T12:24:53.848Z,47.75
2016-04-23T12:25:53.664Z,47.75
2016-04-23T12:26:53.854Z,47.85
2016-04-23T12:27:54.045Z,47.85
2016-04-23T12:28:53.828Z,47.66
2016-04-23T12:29:53.814Z,47.17
2016-04-23T12:30:53.817Z,47.46
2016-04-23T12:31:54.024Z,47.66
2016-04-23T12:32:53.823Z,47.56
2016-04-23T12:33:54.045Z,47.66
2016-04-23T12:34:54.032Z,47.66
2016-04-23T12:35:54.019Z,47.66
2016-04-23T12:36:53.788Z,47.75
2016-04-23T12:37:53.993Z,47.46
2016-04-23T12:38:53.996Z,47.75
2016-04-23T12:39:53.982Z,47.66
2016-04-23T12:40:53.579Z,47.66
2016-04-23T12:41:53.769Z,47.49
2016-04-23T12:42:53.772Z,47.75
2016-04-23T12:43:53.556Z,47.66
2016-04-23T12:44:53.762Z,47.66
2016-04-23T12:45:53.765Z,47.66
2016-04-23T12:46:53.971Z,47.66
2016-04-23T12:47:53.754Z,47.56
2016-04-23T12:48:53.945Z,47.75
2016-04-23T12:49:53.603Z,47.37
2016-04-23T12:50:53.731Z,47.46
2016-04-23T12:51:53.937Z,47.37
2016-04-23T12:52:53.737Z,47.56
2016-04-23T12:53:53.739Z,47.46
2016-04-23T12:54:53.929Z,47.46
2016-04-23T12:55:53.917Z,47.46
2016-04-23T12:56:53.700Z,47.46